Time;durP1;ratioP1;P1;durP2;ratioP2;P2;SDS_P1;SDS_P2;PMS_P1;PMS_P2;Temp;Humidity;BMP_temperature;BMP_pressure;BME280_temperature;BME280_humidity;BME280_pressure;Samples;Min_cycle;Max_cycle;Signal;HPM_P1;HPM_P2
2021/11/11 00:02:54;;;;;;;162.57;67.97;;;;;;;3.02;86.82;101573.92;5425116;54;1141045;-81
2021/11/11 00:08:00;;;;;;;116.83;48.43;;;;;;;3.05;87.24;101558.16;5398285;54;1141207;-79
2021/11/11 00:13:06;;;;;;;143.97;62.17;;;;;;;3.18;87.62;101556.02;5393110;54;1141076;-76
2021/11/11 00:18:12;;;;;;;124.13;58.30;;;;;;;3.29;87.95;101553.08;5426989;54;1141087;-83
2021/11/11 00:23:17;;;;;;;104.00;47.80;;;;;;;3.29;87.90;101547.39;5401242;54;1141251;-76
2021/11/11 00:28:23;;;;;;;94.67;42.57;;;;;;;3.34;88.46;101546.81;5416152;54;1141072;-79
2021/11/11 00:33:29;;;;;;;96.13;42.63;;;;;;;3.37;88.75;101544.52;5397906;54;1139270;-74
2021/11/11 00:38:35;;;;;;;80.83;36.17;;;;;;;3.40;88.67;101551.83;5412224;53;1139049;-78
2021/11/11 00:43:41;;;;;;;134.40;51.77;;;;;;;3.35;88.36;101553.75;5360140;54;1141071;-82
2021/11/11 00:48:47;;;;;;;102.50;46.63;;;;;;;3.36;88.79;101563.28;5342639;54;1141049;-82
2021/11/11 00:53:54;;;;;;;86.20;42.27;;;;;;;3.34;89.33;101563.80;5327180;54;1141332;-74
2021/11/11 00:59:01;;;;;;;87.07;42.47;;;;;;;3.39;89.91;101574.95;5336442;54;1138996;-76
2021/11/11 01:04:07;;;;;;;85.83;39.30;;;;;;;3.36;90.27;101562.45;5337390;54;1138952;-76
2021/11/11 01:09:13;;;;;;;69.33;35.47;;;;;;;3.43;90.65;101562.65;5329722;54;1138919;-80
2021/11/11 01:14:19;;;;;;;88.03;41.47;;;;;;;3.57;90.77;101549.13;5347658;54;1141045;-80
2021/11/11 01:19:26;;;;;;;84.07;42.20;;;;;;;3.64;90.74;101537.58;5340444;54;1141061;-75
2021/11/11 01:24:32;;;;;;;82.43;39.93;;;;;;;3.70;90.97;101537.36;5336315;54;1139107;-78
2021/11/11 01:29:38;;;;;;;88.90;43.43;;;;;;;3.61;90.62;101544.20;5332855;54;1139040;-76
2021/11/11 01:34:45;;;;;;;83.40;38.97;;;;;;;3.51;91.00;101541.87;5339921;54;1139222;-82
2021/11/11 01:39:51;;;;;;;77.00;37.53;;;;;;;3.56;91.35;101544.34;5341415;54;1139070;-78
2021/11/11 01:44:58;;;;;;;85.10;40.03;;;;;;;3.64;91.32;101549.34;5400373;53;1141033;-82
2021/11/11 01:50:07;;;;;;;90.90;41.60;;;;;;;3.71;91.49;101555.63;5427472;54;1141058;-74
2021/11/11 01:55:15;;;;;;;105.13;47.73;;;;;;;3.77;91.63;101544.11;5405932;54;1138997;-80
2021/11/11 02:00:30;;;;;;;109.53;46.93;;;;;;;3.77;91.60;101556.74;5410491;54;1141299;-78
2021/11/11 02:05:37;;;;;;;89.25;39.65;;;;;;;3.77;91.68;101546.73;5425782;53;1140993;-78
2021/11/11 02:10:43;;;;;;;82.27;36.13;;;;;;;3.79;91.57;101535.31;5389883;54;1138901;-75
2021/11/11 02:15:49;;;;;;;77.97;39.57;;;;;;;3.82;91.43;101531.71;5405859;54;1141203;-78
2021/11/11 02:20:56;;;;;;;85.20;43.00;;;;;;;3.82;91.44;101529.95;5410594;54;1136912;-76
2021/11/11 02:26:04;;;;;;;109.10;55.80;;;;;;;3.70;91.20;101523.83;5384976;54;1136838;-80
2021/11/11 02:31:14;;;;;;;83.47;40.83;;;;;;;3.66;91.66;101526.61;5390953;54;1138944;-83
2021/11/11 02:36:23;;;;;;;85.47;40.90;;;;;;;3.56;91.35;101523.42;5422336;54;1136968;-81
2021/11/11 02:41:31;;;;;;;109.17;46.70;;;;;;;3.51;91.71;101523.56;5423545;54;1138981;-78
2021/11/11 02:46:37;;;;;;;108.30;49.30;;;;;;;3.52;92.05;101523.97;5337110;54;1141010;-81
2021/11/11 02:51:44;;;;;;;245.00;103.73;;;;;;;3.51;92.57;101520.95;5346645;54;1139107;-79
2021/11/11 02:56:51;;;;;;;125.73;60.00;;;;;;;3.54;92.69;101516.93;5346799;54;1141318;-78
2021/11/11 03:01:57;;;;;;;86.33;39.17;;;;;;;3.57;93.00;101508.13;5332052;54;1138934;-78
2021/11/11 03:07:03;;;;;;;80.03;36.63;;;;;;;3.63;92.80;101506.64;5330962;55;1136863;-78
2021/11/11 03:12:09;;;;;;;71.63;36.47;;;;;;;3.65;92.58;101515.75;5340771;54;1138916;-76
2021/11/11 03:17:16;;;;;;;71.73;36.80;;;;;;;3.49;92.63;101513.63;5336308;54;1137104;-78
2021/11/11 03:22:23;;;;;;;73.73;36.23;;;;;;;3.37;93.04;101521.84;5331282;54;1137020;-80
2021/11/11 03:27:31;;;;;;;66.43;34.30;;;;;;;3.31;93.37;101529.05;5326929;54;1136934;-79
2021/11/11 03:32:36;;;;;;;74.62;36.08;;;;;;;3.29;93.42;101540.00;5293760;55;1139346;-79
2021/11/11 03:37:46;;;;;;;78.83;39.10;;;;;;;3.25;93.42;101536.62;5286248;54;1137043;-80
2021/11/11 03:42:56;;;;;;;71.75;38.98;;;;;;;3.24;93.72;101532.29;5269513;55;1139448;-79
2021/11/11 03:48:04;;;;;;;77.93;38.10;;;;;;;3.36;94.64;101530.59;5147184;56;1139108;-78
2021/11/11 03:53:11;;;;;;;83.62;42.60;;;;;;;3.43;94.47;101519.05;5175316;55;1139127;-79
2021/11/11 03:58:17;;;;;;;76.27;38.20;;;;;;;3.42;93.86;101506.02;5249099;55;1139005;-80
2021/11/11 04:03:24;;;;;;;73.07;35.23;;;;;;;3.37;93.17;101497.01;5254491;55;1139090;-79
2021/11/11 04:08:31;;;;;;;76.37;38.87;;;;;;;3.37;93.09;101497.45;5249364;55;1141382;-78
2021/11/11 04:13:38;;;;;;;76.83;40.37;;;;;;;3.38;93.40;101482.17;5252429;55;1139193;-80
2021/11/11 04:18:44;;;;;;;89.17;39.53;;;;;;;3.35;93.29;101475.31;5250892;55;1138971;-78
2021/11/11 04:23:52;;;;;;;91.77;40.40;;;;;;;3.25;92.61;101477.80;5252812;55;1139025;-80
2021/11/11 04:29:05;;;;;;;86.23;40.33;;;;;;;3.17;92.84;101479.81;5256308;55;1138964;-75
2021/11/11 04:34:13;;;;;;;85.87;38.23;;;;;;;3.16;92.60;101474.19;5252753;55;1139234;-79
2021/11/11 04:44:44;;;;;;;76.27;39.77;;;;;;;3.07;92.98;101464.86;5345232;53;1138905;-76
2021/11/11 05:05:28;;;;;;;80.85;39.20;;;;;;;3.07;93.15;101494.91;5425381;54;1138955;-77
2021/11/11 05:10:35;;;;;;;81.93;40.80;;;;;;;3.02;92.65;101505.13;5321712;54;1139091;-78
2021/11/11 05:15:41;;;;;;;83.23;41.47;;;;;;;2.98;93.01;101503.50;5263085;55;1139304;-76
2021/11/11 05:20:48;;;;;;;72.70;35.00;;;;;;;2.90;92.86;101512.03;5322821;54;1139000;-79
2021/11/11 05:25:55;;;;;;;86.63;39.87;;;;;;;2.88;92.25;101499.46;5288902;54;1139199;-78
2021/11/11 05:31:01;;;;;;;106.77;39.27;;;;;;;2.89;92.35;101502.48;5261444;55;1139244;-78
2021/11/11 05:36:08;;;;;;;112.93;41.67;;;;;;;2.87;92.35;101495.14;5297055;54;1141038;-80
2021/11/11 05:41:14;;;;;;;100.10;43.40;;;;;;;2.77;91.81;101494.53;5344857;54;1141036;-77
2021/11/11 05:46:22;;;;;;;97.80;41.07;;;;;;;2.69;92.06;101490.86;5415051;53;1141285;-79
2021/11/11 05:51:30;;;;;;;99.27;41.80;;;;;;;2.64;91.50;101490.13;5412376;54;1138936;-78
2021/11/11 05:56:36;;;;;;;113.73;44.20;;;;;;;2.61;91.59;101478.91;5415519;54;1139118;-77
2021/11/11 06:01:43;;;;;;;83.57;38.57;;;;;;;2.50;91.27;101484.45;5429702;54;1139003;-81
2021/11/11 06:06:49;;;;;;;101.70;43.77;;;;;;;2.41;91.76;101479.52;5417433;54;1136895;-78
2021/11/11 06:11:55;;;;;;;110.50;44.07;;;;;;;2.40;92.19;101481.72;5425782;54;1138992;-78
2021/11/11 06:17:06;;;;;;;88.60;44.87;;;;;;;2.42;92.52;101474.25;5385048;54;1139035;-80
2021/11/11 06:22:12;;;;;;;98.30;47.30;;;;;;;2.50;92.89;101460.95;5392632;54;1136738;-82
2021/11/11 06:27:19;;;;;;;97.20;47.00;;;;;;;2.55;93.26;101456.91;5407296;54;1137281;-80
2021/11/11 06:32:26;;;;;;;90.03;44.63;;;;;;;2.56;93.49;101467.32;5361962;54;1136861;-77
2021/11/11 06:37:31;;;;;;;77.40;40.70;;;;;;;2.56;93.61;101460.80;5337715;54;1136725;-79
2021/11/11 06:42:37;;;;;;;72.90;37.07;;;;;;;2.52;93.34;101464.38;5316688;55;1136872;-78
2021/11/11 06:47:44;;;;;;;68.95;33.92;;;;;;;2.46;93.53;101460.63;5311149;54;1136818;-80
2021/11/11 06:52:50;;;;;;;72.83;37.97;;;;;;;2.43;94.40;101455.08;5285670;55;1136888;-77
2021/11/11 06:57:56;;;;;;;71.70;36.53;;;;;;;2.44;95.25;101457.23;5285502;55;1136893;-77
2021/11/11 07:03:02;;;;;;;81.50;36.57;;;;;;;2.48;95.92;101462.75;5286063;54;1137300;-81
2021/11/11 07:08:13;;;;;;;73.10;36.27;;;;;;;2.53;96.65;101462.18;5293483;55;1136778;-80
2021/11/11 07:13:21;;;;;;;98.17;44.47;;;;;;;2.60;97.10;101465.48;5299193;54;1136812;-78
2021/11/11 07:18:27;;;;;;;82.10;44.87;;;;;;;2.70;97.55;101470.38;5283568;54;1134875;-79
2021/11/11 07:23:32;;;;;;;66.37;34.97;;;;;;;2.82;98.17;101473.92;5298794;54;1134779;-88
2021/11/11 07:28:40;;;;;;;64.58;34.33;;;;;;;2.99;98.26;101476.47;5318445;54;1138849;-89
2021/11/11 07:33:46;;;;;;;73.63;32.50;;;;;;;3.13;98.26;101465.98;5204310;55;1140568;-89
2021/11/11 07:38:54;;;;;;;66.70;32.53;;;;;;;3.22;98.01;101468.73;5279005;54;1138810;-86
2021/11/11 07:44:00;;;;;;;75.80;37.13;;;;;;;3.30;98.12;101483.74;5312829;54;1148818;-87
2021/11/11 07:49:06;;;;;;;62.00;30.57;;;;;;;3.37;98.36;101489.61;5317058;54;1138929;-85
2021/11/11 07:54:13;;;;;;;65.67;34.73;;;;;;;3.47;98.51;101486.67;5277630;54;1139393;-88
2021/11/11 07:59:18;;;;;;;68.33;38.43;;;;;;;3.58;98.61;101486.31;5308191;54;1138951;-89
2021/11/11 08:04:24;;;;;;;77.57;36.90;;;;;;;3.65;98.84;101490.45;5268726;54;1138900;-88
2021/11/11 08:09:30;;;;;;;65.37;38.03;;;;;;;3.71;98.66;101490.67;5293636;54;1139157;-87
2021/11/11 08:14:35;;;;;;;59.33;32.37;;;;;;;3.81;99.03;101488.16;5268436;54;1138241;-87
2021/11/11 08:19:43;;;;;;;119.37;53.17;;;;;;;3.93;98.96;101492.12;5249730;55;1138931;-88
2021/11/11 08:24:49;;;;;;;88.07;41.53;;;;;;;3.97;98.83;101488.04;5293730;54;1143188;-88
2021/11/11 08:29:57;;;;;;;79.13;37.37;;;;;;;4.06;99.20;101483.78;5334000;54;1138938;-87
2021/11/11 08:35:03;;;;;;;51.33;25.43;;;;;;;4.14;99.24;101478.25;5332707;54;1138939;-88
2021/11/11 08:40:11;;;;;;;90.57;41.83;;;;;;;4.22;99.49;101471.00;5347302;54;1140943;-88
2021/11/11 08:45:18;;;;;;;103.33;46.13;;;;;;;4.29;99.16;101470.30;5397733;54;1140295;-90
2021/11/11 08:50:28;;;;;;;74.32;37.65;;;;;;;4.35;99.20;101460.92;5307946;54;1141122;-87
2021/11/11 08:55:34;;;;;;;86.20;38.93;;;;;;;4.39;99.29;101454.22;5257791;54;1139093;-87
2021/11/11 09:00:50;;;;;;;53.10;23.83;;;;;;;4.42;99.36;101452.80;5275410;54;1140403;-88
2021/11/11 09:05:56;;;;;;;84.40;43.90;;;;;;;4.44;99.73;101460.57;5289714;54;1140963;-87
2021/11/11 09:11:03;;;;;;;76.70;35.63;;;;;;;4.48;99.51;101455.62;5339594;54;1140946;-87
2021/11/11 09:16:09;;;;;;;138.43;52.10;;;;;;;4.49;99.70;101455.57;5338096;54;1139255;-87
2021/11/11 09:21:15;;;;;;;113.17;44.93;;;;;;;4.52;100.00;101455.46;5347389;54;1143385;-87
2021/11/11 09:26:21;;;;;;;81.57;31.23;;;;;;;4.62;100.00;101455.95;5323530;54;1145183;-87
2021/11/11 09:31:29;;;;;;;73.50;34.57;;;;;;;4.73;100.00;101460.81;5342253;54;1142965;-87
2021/11/11 09:36:35;;;;;;;111.60;58.17;;;;;;;4.75;100.00;101472.91;5322814;54;1143082;-87
2021/11/11 09:41:43;;;;;;;112.27;44.77;;;;;;;4.76;100.00;101482.48;5330047;54;1145108;-87
2021/11/11 09:46:50;;;;;;;82.60;35.10;;;;;;;4.75;100.00;101475.53;5413477;54;1145203;-88
2021/11/11 09:51:57;;;;;;;72.25;34.00;;;;;;;4.77;100.00;101472.41;5325335;54;1143295;-88
2021/11/11 10:02:29;;;;;;;73.17;42.83;;;;;;;5.08;100.00;101477.31;5315656;54;1147232;-88
2021/11/11 10:07:35;;;;;;;96.20;59.90;;;;;;;5.20;100.00;101474.65;5326700;54;1141238;-89
2021/11/11 10:12:42;;;;;;;64.57;38.37;;;;;;;5.33;100.00;101484.22;5333376;54;1141131;-88
2021/11/11 10:17:50;;;;;;;67.55;32.90;;;;;;;5.36;100.00;101474.42;5345884;54;1140227;-89
2021/11/11 10:22:59;;;;;;;64.22;35.23;;;;;;;5.30;100.00;101475.55;5300919;54;1141577;-89
2021/11/11 10:28:05;;;;;;;109.87;51.03;;;;;;;5.26;100.00;101486.22;5270719;54;1141159;-89
2021/11/11 10:33:14;;;;;;;192.30;77.23;;;;;;;5.28;100.00;101494.42;5300378;54;1143016;-88
2021/11/11 10:38:29;;;;;;;118.57;52.17;;;;;;;5.36;100.00;101481.44;5313045;54;1143263;-89
2021/11/11 10:43:34;;;;;;;129.73;58.37;;;;;;;5.54;100.00;101474.13;5300943;54;1143075;-87
2021/11/11 10:48:43;;;;;;;159.00;64.47;;;;;;;5.77;100.00;101471.88;5297169;54;1143040;-88
2021/11/11 10:53:48;;;;;;;78.17;40.93;;;;;;;5.86;100.00;101457.89;5266462;54;1143323;-89
2021/11/11 10:58:53;;;;;;;136.20;59.83;;;;;;;5.90;100.00;101455.56;5224870;55;1141098;-86
2021/11/11 11:03:59;;;;;;;76.30;46.33;;;;;;;6.09;100.00;101439.01;5250059;54;1143101;-86
2021/11/11 11:09:05;;;;;;;46.83;27.30;;;;;;;6.22;100.00;101435.77;5242862;55;1141265;-86
2021/11/11 11:14:28;;;;;;;74.03;33.67;;;;;;;6.43;100.00;101443.11;5236644;54;1140955;-87
2021/11/11 11:19:34;;;;;;;96.10;40.00;;;;;;;6.66;100.00;101446.02;5224026;54;1142342;-87
2021/11/11 11:24:42;;;;;;;104.03;41.95;;;;;;;6.83;100.00;101428.98;5248384;55;1143354;-86
2021/11/11 11:30:00;;;;;;;93.47;38.30;;;;;;;6.99;99.16;101435.69;5256853;54;1145242;-85
2021/11/11 11:35:13;;;;;;;97.03;38.20;;;;;;;6.92;97.24;101443.46;5306977;54;1141042;-86
2021/11/11 11:40:20;;;;;;;85.67;38.30;;;;;;;6.82;97.48;101442.20;5331536;54;1141030;-86
2021/11/11 11:45:26;;;;;;;65.87;26.53;;;;;;;6.85;98.08;101441.60;5386879;54;1141037;-87
2021/11/11 11:50:48;;;;;;;105.90;37.83;;;;;;;7.00;97.72;101440.87;5424287;53;1141143;-87
2021/11/11 11:55:51;;;;;;;69.80;35.30;;;;;;;7.04;97.44;101440.23;5418842;54;1143431;-87
2021/11/11 12:12:12;;;;;;;61.27;32.73;;;;;;;6.88;96.63;101416.91;5164094;55;1140987;-87
2021/11/11 12:39:01;;;;;;;63.90;33.92;;;;;;;7.04;96.73;101395.52;5303513;53;21127;-85
2021/11/11 12:44:11;;;;;;;72.77;36.80;;;;;;;7.12;96.74;101385.50;5222921;55;1134772;-84
2021/11/11 12:49:35;;;;;;;45.23;23.43;;;;;;;7.41;96.47;101363.83;5274707;56;21148;-85
2021/11/11 12:54:43;;;;;;;77.07;35.67;;;;;;;7.41;96.47;101363.83;5227241;56;1132661;-85
2021/11/11 12:59:53;;;;;;;59.67;33.87;;;;;;;7.56;95.91;101361.34;5270813;55;1140358;-85
2021/11/11 13:05:00;;;;;;;77.37;40.58;;;;;;;7.66;95.61;101354.66;5409024;54;1140981;-85
2021/11/11 13:10:20;;;;;;;92.83;45.57;;;;;;;7.79;94.71;101347.00;5407228;54;1140961;-86
2021/11/11 13:15:22;;;;;;;81.23;40.50;;;;;;;7.85;94.55;101353.23;5403349;54;1140991;-86
2021/11/11 13:20:40;;;;;;;76.07;40.87;;;;;;;7.92;94.11;101355.48;5402484;54;1141002;-84
2021/11/11 13:25:58;;;;;;;63.27;31.80;;;;;;;7.95;94.27;101361.02;5403205;54;1141012;-85
2021/11/11 15:15:33;;;;;;;62.05;33.67;;;;;;;6.90;94.88;101399.28;5236110;55;1139011;-84
2021/11/11 16:29:38;;;;;;;205.03;76.47;;;;;;;6.36;95.18;101386.53;5115595;57;970126;-85
2021/11/11 16:34:46;;;;;;;179.63;74.10;;;;;;;6.28;94.10;101384.24;5137951;56;1136883;-85
2021/11/11 16:39:51;;;;;;;141.97;59.13;;;;;;;6.18;94.14;101386.05;5138682;56;1139031;-85
2021/11/11 16:44:58;;;;;;;120.23;52.13;;;;;;;6.13;93.88;101391.97;5103205;57;1141013;-86
2021/11/11 16:50:05;;;;;;;154.00;65.37;;;;;;;6.13;94.13;101387.56;5136949;56;1141107;-84
2021/11/11 16:55:11;;;;;;;181.80;73.23;;;;;;;6.17;94.40;101393.55;5137112;56;1141055;-85
2021/11/11 17:00:18;;;;;;;152.60;68.90;;;;;;;6.14;94.05;101399.78;5144241;56;1138953;-86
2021/11/11 17:05:24;;;;;;;114.43;57.00;;;;;;;6.07;93.94;101404.94;5139662;56;1139003;-84
2021/11/11 17:10:30;;;;;;;95.20;49.43;;;;;;;5.93;92.95;101406.86;5137038;57;1136865;-86
2021/11/11 17:15:39;;;;;;;99.27;50.07;;;;;;;5.73;92.74;101417.80;5156990;57;21203;-85
2021/11/11 17:20:45;;;;;;;100.43;58.57;;;;;;;5.61;93.39;101418.72;5113721;57;1137034;-85
2021/11/11 17:31:03;;;;;;;164.23;93.87;;;;;;;5.51;95.33;101417.84;5126295;57;1140974;-82
2021/11/11 17:36:12;;;;;;;92.10;51.10;;;;;;;5.50;96.17;101416.98;5131073;57;1141288;-85
2021/11/11 17:41:18;;;;;;;93.23;47.43;;;;;;;5.53;97.00;101417.33;5085690;57;1141174;-84
2021/11/11 17:46:27;;;;;;;98.73;44.60;;;;;;;5.56;97.50;101420.68;5008279;58;1141251;-85
2021/11/11 17:51:53;;;;;;;93.57;41.47;;;;;;;5.58;98.14;101420.62;5004287;58;1141139;-86
2021/11/11 17:56:51;;;;;;;187.90;114.43;;;;;;;5.63;98.39;101422.14;5002548;57;1141077;-85
2021/11/11 18:01:59;;;;;;;79.50;41.10;;;;;;;5.71;98.60;101419.63;5065853;58;1145228;-76
2021/11/11 18:07:07;;;;;;;101.83;44.83;;;;;;;5.74;98.84;101422.12;5017407;57;1141050;-80
2021/11/11 18:12:20;;;;;;;71.77;34.10;;;;;;;5.79;98.94;101423.64;5011416;57;1143230;-80
2021/11/11 18:17:22;;;;;;;102.67;45.63;;;;;;;5.84;99.11;101419.48;5036245;57;1141062;-83
2021/11/11 18:22:30;;;;;;;75.00;35.60;;;;;;;5.87;99.25;101421.98;5074062;56;1143128;-87
2021/11/11 18:27:36;;;;;;;86.47;38.57;;;;;;;5.89;99.51;101423.66;5054798;57;1141000;-86
2021/11/11 18:32:46;;;;;;;81.67;35.43;;;;;;;5.92;99.46;101418.28;5045339;57;1141179;-86
2021/11/11 18:37:54;;;;;;;64.70;33.87;;;;;;;5.95;99.58;101417.30;5041298;57;1141077;-84
2021/11/11 18:43:00;;;;;;;61.37;31.80;;;;;;;5.97;99.54;101418.06;5101835;57;1141037;-84
2021/11/11 18:48:26;;;;;;;67.40;28.93;;;;;;;5.99;99.50;101414.91;5097581;57;1140996;-84
2021/11/11 18:53:32;;;;;;;90.83;38.00;;;;;;;6.00;99.67;101416.61;5098956;57;1140591;-83
2021/11/11 18:58:38;;;;;;;70.70;36.17;;;;;;;5.99;99.82;101408.34;5098765;57;1140990;-85
2021/11/11 19:03:45;;;;;;;81.47;40.90;;;;;;;5.98;99.87;101404.02;5092634;55;1141292;-87
2021/11/11 19:09:05;;;;;;;78.93;36.60;;;;;;;5.99;100.00;101405.72;5097798;57;1141020;-84
2021/11/11 19:14:03;;;;;;;76.53;36.47;;;;;;;5.99;100.00;101407.03;5099847;57;1143067;-83
2021/11/11 19:19:19;;;;;;;179.77;90.73;;;;;;;6.00;100.00;101400.86;5100766;57;1143053;-87
2021/11/11 19:24:25;;;;;;;391.37;126.00;;;;;;;6.02;100.00;101397.71;5105247;57;1143232;-85
2021/11/11 19:29:33;;;;;;;93.67;41.18;;;;;;;6.00;100.00;101397.77;5085757;55;1145168;-85
2021/11/11 19:34:48;;;;;;;85.17;38.13;;;;;;;6.03;100.00;101391.54;5100029;57;1141242;-84
2021/11/11 19:46:04;;;;;;;153.82;51.50;;;;;;;6.06;100.00;101390.09;5115117;56;1143100;-85
2021/11/11 19:55:57;;;;;;;64.97;31.00;;;;;;;6.10;100.00;101387.73;5111641;55;1143101;-84
2021/11/11 20:06:35;;;;;;;86.50;32.17;;;;;;;6.15;100.00;101392.75;5068544;56;1147328;-84
2021/11/11 20:17:22;;;;;;;40.90;20.10;;;;;;;6.22;100.00;101391.11;5083802;57;1143391;-83
2021/11/11 20:54:21;;;;;;;57.33;23.83;;;;;;;6.41;100.00;101406.89;5078340;58;1143161;-85
2021/11/11 21:04:10;;;;;;;71.87;31.33;;;;;;;6.43;100.00;101399.76;5079680;58;1143157;-83
2021/11/11 21:15:01;;;;;;;49.87;24.30;;;;;;;6.46;100.00;101406.66;5034818;57;1143084;-83
2021/11/11 21:25:08;;;;;;;67.13;28.57;;;;;;;6.45;100.00;101399.69;5137212;55;1140997;-83
2021/11/11 21:30:19;;;;;;;51.23;30.40;;;;;;;6.45;100.00;101398.38;5057711;57;1141121;-83
2021/11/11 21:40:40;;;;;;;59.03;23.77;;;;;;;6.46;100.00;101398.77;5296903;55;1143191;-82
2021/11/11 21:45:47;;;;;;;65.30;27.93;;;;;;;6.47;100.00;101395.22;5138037;57;1140999;-82
2021/11/11 21:50:54;;;;;;;63.67;28.03;;;;;;;6.48;100.00;101399.55;5202537;55;1141312;-84
2021/11/11 22:01:23;;;;;;;48.45;23.50;;;;;;;6.54;100.00;101399.28;5139551;56;1141047;-83
2021/11/11 22:22:40;;;;;;;53.67;25.60;;;;;;;6.60;100.00;101398.97;5204103;56;1143086;-82
2021/11/11 22:33:10;;;;;;;56.88;24.55;;;;;;;6.57;100.00;101395.20;4965636;59;1143156;-83
2021/11/11 22:38:16;;;;;;;56.00;27.23;;;;;;;6.54;100.00;101397.50;4931745;58;1143096;-81
2021/11/11 22:43:21;;;;;;;48.67;23.60;;;;;;;6.54;100.00;101397.97;5044913;58;1143066;-83
2021/11/11 22:48:27;;;;;;;63.63;29.37;;;;;;;6.55;100.00;101399.21;4936694;59;1143332;-82
2021/11/11 22:53:48;;;;;;;54.57;22.47;;;;;;;6.54;100.00;101402.77;4888102;59;1143261;-84
2021/11/11 23:15:03;;;;;;;55.07;26.00;;;;;;;6.54;100.00;101397.50;5103532;57;1143174;-84
2021/11/11 23:25:40;;;;;;;49.85;18.90;;;;;;;6.53;100.00;101392.31;5231369;55;1141232;-84
2021/11/11 23:36:09;;;;;;;62.62;27.05;;;;;;;6.51;100.00;101387.59;5209240;56;1141115;-84
2021/11/11 23:41:16;;;;;;;61.00;28.00;;;;;;;6.50;100.00;101377.55;5282887;55;1141078;-84
2021/11/11 23:46:30;;;;;;;51.33;22.67;;;;;;;6.51;100.00;101380.56;5245988;56;1141241;-83
